Terminal Aerodrome Forecast
Issued by NWS Jackson, MS

Home | Current Version | Previous Version | Text Only | Print | Product List | Glossary On
Versions: 1 2 3 4 5 6 7 8 9 10 11 12 13 14 15
163
FTUS44 KMEG 201136
TAFTUP
TAF
KTUP 201136Z 2012/2112 VRB03KT P6SM FEW250
     FM201600 23006KT P6SM SCT040 SCT250
     FM210000 16003KT P6SM FEW250=

USA.gov is the U.S. government's official web portal to all federal, state and local government web resources and services.